createdAt,value
2019-01-20T00:02:04.579Z,3.40
2019-01-20T00:04:35.948Z,3.90
2019-01-20T00:07:07.086Z,3.50
2019-01-20T00:09:37.491Z,3.70
2019-01-20T00:12:07.932Z,3.77
2019-01-20T00:14:38.607Z,3.45
2019-01-20T00:17:10.732Z,3.60
2019-01-20T00:19:41.702Z,4.67
2019-01-20T00:22:12.123Z,5.30
2019-01-20T00:24:42.481Z,6.00
2019-01-20T00:27:13.106Z,6.03
2019-01-20T00:29:43.857Z,7.00
2019-01-20T00:32:14.317Z,6.77
2019-01-20T00:34:44.896Z,6.65
2019-01-20T00:37:15.257Z,7.07
2019-01-20T00:39:46.863Z,7.08
2019-01-20T00:42:17.235Z,6.60
2019-01-20T00:44:47.876Z,7.17
2019-01-20T00:47:18.184Z,6.20
2019-01-20T00:49:48.882Z,6.28
2019-01-20T00:52:19.226Z,6.27
2019-01-20T00:54:51.246Z,7.25
2019-01-20T00:57:22.614Z,7.50
2019-01-20T00:59:53.232Z,7.75
2019-01-20T01:02:23.653Z,9.17
2019-01-20T01:04:55.852Z,8.43
2019-01-20T01:07:26.220Z,8.40
2019-01-20T01:09:58.108Z,8.28
2019-01-20T01:12:28.506Z,8.07
2019-01-20T01:15:01.083Z,9.78
2019-01-20T01:17:31.631Z,8.83
2019-01-20T01:20:03.280Z,8.47
2019-01-20T01:22:33.647Z,8.70
2019-01-20T01:25:03.969Z,9.03
2019-01-20T01:27:34.600Z,9.63
2019-01-20T01:30:07.855Z,9.60
2019-01-20T01:32:38.481Z,8.05
2019-01-20T01:35:09.337Z,8.00
2019-01-20T01:37:40.135Z,7.50
2019-01-20T01:40:11.740Z,8.03
2019-01-20T01:42:42.396Z,7.83
2019-01-20T01:45:18.164Z,9.03
2019-01-20T01:47:48.664Z,8.23
2019-01-20T01:50:19.970Z,8.43
2019-01-20T01:52:50.320Z,8.53
2019-01-20T01:55:21.098Z,8.73
2019-01-20T01:57:51.682Z,8.27
2019-01-20T02:00:24.714Z,9.13
2019-01-20T02:02:55.133Z,10.55
2019-01-20T02:05:25.479Z,10.77
2019-01-20T02:07:56.352Z,10.67
2019-01-20T02:10:27.126Z,10.17
2019-01-20T02:12:58.308Z,9.08
2019-01-20T02:15:28.887Z,9.20
2019-01-20T02:18:02.348Z,9.58
2019-01-20T02:20:33.735Z,8.97
2019-01-20T02:23:06.229Z,8.63
2019-01-20T02:25:40.281Z,7.80
2019-01-20T02:28:12.802Z,9.30
2019-01-20T02:30:43.074Z,8.73
2019-01-20T02:33:14.000Z,9.37
2019-01-20T02:35:44.403Z,9.13
2019-01-20T02:38:16.466Z,9.00
2019-01-20T02:40:47.147Z,10.37
2019-01-20T02:43:22.342Z,10.63
2019-01-20T02:45:52.664Z,10.47
2019-01-20T02:48:23.256Z,10.43
2019-01-20T02:50:53.898Z,11.37
2019-01-20T02:53:24.267Z,9.47
2019-01-20T02:55:54.992Z,9.88
2019-01-20T02:58:25.687Z,10.87
2019-01-20T03:00:56.150Z,10.03
2019-01-20T03:03:27.583Z,9.80
2019-01-20T03:05:58.106Z,9.80
2019-01-20T03:08:28.432Z,10.33
2019-01-20T03:10:58.903Z,10.87
2019-01-20T03:13:29.437Z,10.57
2019-01-20T03:16:02.307Z,9.33
2019-01-20T03:18:34.433Z,10.07
2019-01-20T03:21:05.212Z,9.10
2019-01-20T03:23:35.585Z,8.30
2019-01-20T03:26:06.906Z,8.95
2019-01-20T03:28:37.254Z,9.53
2019-01-20T03:31:09.251Z,10.08
2019-01-20T03:33:39.927Z,9.97
2019-01-20T03:36:12.792Z,10.42
2019-01-20T03:38:43.333Z,11.17
2019-01-20T03:41:15.866Z,10.50
2019-01-20T03:43:46.215Z,9.40
2019-01-20T03:46:18.187Z,10.30
2019-01-20T03:48:49.650Z,9.10
2019-01-20T03:51:20.303Z,9.73
2019-01-20T03:53:50.792Z,8.27
2019-01-20T03:56:22.371Z,9.85
2019-01-20T03:58:52.800Z,9.80
2019-01-20T04:01:24.485Z,9.67
2019-01-20T04:03:55.169Z,10.30
2019-01-20T04:06:25.476Z,10.27
2019-01-20T04:08:58.791Z,10.00
2019-01-20T04:11:30.480Z,8.33
2019-01-20T04:14:03.292Z,7.53
2019-01-20T04:16:33.703Z,7.93
2019-01-20T04:19:04.583Z,6.90
2019-01-20T04:21:34.919Z,7.47
2019-01-20T04:24:05.302Z,7.77
2019-01-20T04:26:35.952Z,7.77
2019-01-20T04:29:06.285Z,7.92
2019-01-20T04:31:36.624Z,10.07
2019-01-20T04:34:08.013Z,10.12
2019-01-20T04:36:38.304Z,9.77
2019-01-20T04:39:10.099Z,8.68
2019-01-20T04:41:40.419Z,9.07
2019-01-20T04:44:11.107Z,8.28
2019-01-20T04:46:41.588Z,8.30
2019-01-20T04:49:12.304Z,8.00
2019-01-20T04:51:42.598Z,7.27
2019-01-20T04:54:14.980Z,7.57
2019-01-20T04:56:47.235Z,8.40
2019-01-20T04:59:18.886Z,8.08
2019-01-20T05:01:49.220Z,7.37
2019-01-20T05:04:20.880Z,8.80
2019-01-20T05:06:51.383Z,7.78
2019-01-20T05:09:26.259Z,8.40
2019-01-20T05:11:56.816Z,9.50
2019-01-20T05:14:27.170Z,9.17
2019-01-20T05:17:00.158Z,10.53
2019-01-20T05:19:30.508Z,10.33
2019-01-20T05:22:01.203Z,9.45
2019-01-20T05:24:31.598Z,9.43
2019-01-20T05:27:03.140Z,10.83
2019-01-20T05:29:34.903Z,10.80
2019-01-20T05:32:05.190Z,9.50
2019-01-20T05:34:37.139Z,10.33
2019-01-20T05:37:08.161Z,9.50
2019-01-20T05:39:38.619Z,10.30
2019-01-20T05:42:09.426Z,8.65
2019-01-20T05:44:39.770Z,9.73
2019-01-20T05:47:10.398Z,9.93
2019-01-20T05:49:40.840Z,10.00
2019-01-20T05:52:13.694Z,8.73
2019-01-20T05:54:46.535Z,9.43
2019-01-20T05:57:18.301Z,10.25
2019-01-20T05:59:48.638Z,9.00
2019-01-20T06:02:19.434Z,7.63
2019-01-20T06:04:49.874Z,9.20
2019-01-20T06:07:22.854Z,8.93
2019-01-20T06:09:53.366Z,6.80
2019-01-20T06:12:24.368Z,7.17
2019-01-20T06:14:54.816Z,6.90
2019-01-20T06:17:25.158Z,7.23
2019-01-20T06:19:55.726Z,6.78
2019-01-20T06:22:26.361Z,7.03
2019-01-20T06:24:58.078Z,7.30
2019-01-20T06:27:28.404Z,9.20
2019-01-20T06:29:58.738Z,7.20
2019-01-20T06:32:29.083Z,7.60
2019-01-20T06:34:59.729Z,7.73
2019-01-20T06:37:30.025Z,8.47
2019-01-20T06:40:00.495Z,7.67
2019-01-20T06:42:32.243Z,8.73
2019-01-20T06:45:03.921Z,9.17
2019-01-20T06:47:34.320Z,8.40
2019-01-20T06:50:07.227Z,9.70
2019-01-20T06:52:39.040Z,8.13
2019-01-20T06:55:11.499Z,6.63
2019-01-20T06:57:42.152Z,6.37
2019-01-20T07:00:19.943Z,7.36
2019-01-20T07:02:50.331Z,7.57
2019-01-20T07:05:21.165Z,6.72
2019-01-20T07:07:53.404Z,7.00
2019-01-20T07:10:23.837Z,6.90
2019-01-20T07:12:54.314Z,7.43
2019-01-20T07:15:27.260Z,7.22
2019-01-20T07:17:57.679Z,6.93
2019-01-20T07:20:28.987Z,7.60
2019-01-20T07:23:02.287Z,7.67
2019-01-20T07:25:33.919Z,6.42
2019-01-20T07:28:04.720Z,7.40
2019-01-20T07:30:38.080Z,6.60
2019-01-20T07:33:08.830Z,6.90
2019-01-20T07:35:40.743Z,7.00
2019-01-20T07:38:11.365Z,6.92
2019-01-20T07:40:43.053Z,6.38
2019-01-20T07:43:16.930Z,6.63
2019-01-20T07:45:47.519Z,8.33
2019-01-20T07:48:17.791Z,8.90
2019-01-20T07:50:48.550Z,7.37
2019-01-20T07:53:19.737Z,8.77
2019-01-20T07:55:51.047Z,8.83
2019-01-20T07:58:21.493Z,8.50
2019-01-20T08:00:53.489Z,9.03
2019-01-20T08:03:25.673Z,7.87
2019-01-20T08:05:56.270Z,7.57
2019-01-20T08:08:26.674Z,7.87
2019-01-20T08:10:58.933Z,7.30
2019-01-20T08:13:29.597Z,8.38
2019-01-20T08:16:00.082Z,8.33
2019-01-20T08:18:30.980Z,8.13
2019-01-20T08:21:01.393Z,8.63
2019-01-20T08:23:32.737Z,7.86
2019-01-20T08:26:04.767Z,7.33
2019-01-20T08:28:36.034Z,8.48
2019-01-20T08:31:07.182Z,8.47
2019-01-20T08:33:39.453Z,7.87
2019-01-20T08:36:10.897Z,8.13
2019-01-20T08:38:42.763Z,7.53
2019-01-20T08:41:14.095Z,9.20
2019-01-20T08:43:47.812Z,8.82
2019-01-20T08:46:49.797Z,9.27
2019-01-20T08:49:23.251Z,8.43
2019-01-20T08:51:57.628Z,9.00
2019-01-20T08:54:28.563Z,9.60
2019-01-20T08:57:04.965Z,9.35
2019-01-20T08:59:37.528Z,10.10
2019-01-20T09:02:10.180Z,8.93
2019-01-20T09:04:42.431Z,8.53
2019-01-20T09:07:16.256Z,7.53
2019-01-20T09:09:47.394Z,7.27
2019-01-20T09:12:19.894Z,8.20
2019-01-20T09:14:55.067Z,9.17
2019-01-20T09:17:25.436Z,8.33
2019-01-20T09:19:55.791Z,8.97
2019-01-20T09:22:28.544Z,8.50
2019-01-20T09:24:59.034Z,9.50
2019-01-20T09:27:29.422Z,8.00
2019-01-20T09:29:59.875Z,9.27
2019-01-20T09:32:30.527Z,8.78
2019-01-20T09:35:02.192Z,8.70
2019-01-20T09:37:32.695Z,9.80
2019-01-20T09:40:04.359Z,8.87
2019-01-20T09:42:34.767Z,9.27
2019-01-20T09:45:06.163Z,8.33
2019-01-20T09:47:36.583Z,9.40
2019-01-20T09:50:07.740Z,8.63
2019-01-20T09:52:39.447Z,8.83
2019-01-20T09:55:10.756Z,9.33
2019-01-20T09:57:41.359Z,9.67
2019-01-20T10:00:17.322Z,9.87
2019-01-20T10:02:47.660Z,8.87
2019-01-20T10:05:18.308Z,9.80
2019-01-20T10:07:49.098Z,9.07
2019-01-20T10:10:19.478Z,9.48
2019-01-20T10:12:50.962Z,8.30
2019-01-20T10:15:21.352Z,9.63
2019-01-20T10:17:51.749Z,8.87
2019-01-20T10:20:25.063Z,10.33
2019-01-20T10:22:55.663Z,11.27
2019-01-20T10:25:26.387Z,9.55
2019-01-20T10:27:57.851Z,9.73
2019-01-20T10:30:30.853Z,9.60
2019-01-20T10:33:01.288Z,9.63
2019-01-20T10:35:38.690Z,9.70
2019-01-20T10:38:10.560Z,8.67
2019-01-20T10:40:42.327Z,8.60
2019-01-20T10:43:12.680Z,9.47
2019-01-20T10:45:43.379Z,9.10
2019-01-20T10:48:13.805Z,9.33
2019-01-20T10:50:45.972Z,9.25
2019-01-20T10:53:18.734Z,8.80
2019-01-20T10:55:49.792Z,9.50
2019-01-20T10:58:20.474Z,9.70
2019-01-20T11:00:51.023Z,9.57
2019-01-20T11:03:23.601Z,9.93
2019-01-20T11:05:54.757Z,8.43
2019-01-20T11:08:25.223Z,8.93
2019-01-20T11:10:56.175Z,10.00
2019-01-20T11:13:26.722Z,9.40
2019-01-20T11:15:57.277Z,10.37
2019-01-20T11:18:27.581Z,9.33
2019-01-20T11:20:58.072Z,8.87
2019-01-20T11:23:31.160Z,10.10
2019-01-20T11:26:03.132Z,9.23
2019-01-20T11:28:33.850Z,9.53
2019-01-20T11:31:04.247Z,9.20
2019-01-20T11:33:34.614Z,10.10
2019-01-20T11:36:05.023Z,10.20
2019-01-20T11:38:36.096Z,9.78
2019-01-20T11:41:06.421Z,9.57
2019-01-20T11:43:36.914Z,8.83
2019-01-20T11:46:07.234Z,8.67
2019-01-20T11:48:37.597Z,8.67
2019-01-20T11:51:08.056Z,8.23
2019-01-20T11:53:38.786Z,8.55
2019-01-20T11:56:10.534Z,8.33
2019-01-20T11:58:42.094Z,8.63
2019-01-20T12:01:12.879Z,8.00
2019-01-20T12:03:44.916Z,7.97
2019-01-20T12:06:15.211Z,8.03
2019-01-20T12:08:45.893Z,7.23
2019-01-20T12:11:16.493Z,8.37
2019-01-20T12:13:49.065Z,8.20
2019-01-20T12:16:19.469Z,8.43
2019-01-20T12:18:50.516Z,8.53
2019-01-20T12:21:22.802Z,7.93
2019-01-20T12:23:57.002Z,8.17
2019-01-20T12:26:28.805Z,8.43
2019-01-20T12:29:02.056Z,7.33
2019-01-20T12:31:36.469Z,7.43
2019-01-20T12:34:06.957Z,7.87
2019-01-20T12:36:37.332Z,8.07
2019-01-20T12:39:09.248Z,8.00
2019-01-20T12:41:39.600Z,7.63
2019-01-20T12:44:12.103Z,8.43
2019-01-20T12:46:49.811Z,8.03
2019-01-20T12:49:20.362Z,7.60
2019-01-20T12:51:50.794Z,7.50
2019-01-20T12:54:22.808Z,7.67
2019-01-20T12:56:56.948Z,6.30
2019-01-20T12:59:29.288Z,7.20
2019-01-20T13:02:01.888Z,7.00
2019-01-20T13:04:32.608Z,6.33
2019-01-20T13:07:03.406Z,6.12
2019-01-20T13:09:34.102Z,6.50
2019-01-20T13:12:04.696Z,6.13
2019-01-20T13:14:39.241Z,6.67
2019-01-20T13:17:07.851Z,5.87
2019-01-20T13:19:38.455Z,6.67
2019-01-20T13:22:09.016Z,6.42
2019-01-20T13:24:42.966Z,6.33
2019-01-20T13:27:20.516Z,6.93
2019-01-20T13:29:53.811Z,6.70
2019-01-20T13:32:29.346Z,7.00
2019-01-20T13:35:03.351Z,6.67
2019-01-20T13:37:34.040Z,6.90
2019-01-20T13:40:06.293Z,6.67
2019-01-20T13:42:36.688Z,6.67
2019-01-20T13:45:08.379Z,6.07
2019-01-20T13:47:40.004Z,6.20
2019-01-20T13:50:14.569Z,6.80
2019-01-20T13:52:45.511Z,6.65
2019-01-20T13:55:16.744Z,6.63
2019-01-20T13:57:47.418Z,6.20
2019-01-20T14:00:21.753Z,6.27
2019-01-20T14:02:52.495Z,6.25
2019-01-20T14:05:26.009Z,6.73
2019-01-20T14:08:02.285Z,6.15
2019-01-20T14:10:33.485Z,6.22
2019-01-20T14:13:03.927Z,6.83
2019-01-20T14:15:36.676Z,7.58
2019-01-20T14:18:07.095Z,6.73
2019-01-20T14:20:37.919Z,7.10
2019-01-20T14:23:08.555Z,7.92
2019-01-20T14:25:40.440Z,6.85
2019-01-20T14:28:11.047Z,6.93
2019-01-20T14:30:42.375Z,7.00
2019-01-20T14:33:13.102Z,7.00
2019-01-20T14:35:43.573Z,6.83
2019-01-20T14:38:16.407Z,7.00
2019-01-20T14:40:46.799Z,7.07
2019-01-20T14:43:18.480Z,6.87
2019-01-20T14:45:48.809Z,7.67
2019-01-20T14:48:19.595Z,8.38
2019-01-20T14:50:50.010Z,7.57
2019-01-20T14:53:20.642Z,7.25
2019-01-20T14:55:51.031Z,7.23
2019-01-20T14:58:22.133Z,8.45
2019-01-20T15:00:58.589Z,7.83
2019-01-20T15:03:35.135Z,7.50
2019-01-20T15:06:07.473Z,6.30
2019-01-20T15:08:37.959Z,7.43
2019-01-20T15:11:08.708Z,6.50
2019-01-20T15:13:41.403Z,7.53
2019-01-20T15:16:11.747Z,7.23
2019-01-20T15:18:52.437Z,6.47
2019-01-20T15:21:23.236Z,6.13
2019-01-20T15:23:58.334Z,7.17
2019-01-20T15:26:29.132Z,7.00
2019-01-20T15:29:00.309Z,7.03
2019-01-20T15:31:32.320Z,7.40
2019-01-20T15:34:03.154Z,7.60
2019-01-20T15:36:35.674Z,6.93
2019-01-20T15:39:09.091Z,8.77
2019-01-20T15:41:44.962Z,8.50
2019-01-20T15:44:21.478Z,8.10
2019-01-20T15:46:56.017Z,7.13
2019-01-20T15:49:30.988Z,7.80
2019-01-20T15:52:03.004Z,7.35
2019-01-20T15:54:33.414Z,7.43
2019-01-20T15:57:04.084Z,7.40
2019-01-20T15:59:36.037Z,7.93
2019-01-20T16:02:08.750Z,7.55
2019-01-20T16:04:39.211Z,8.23
2019-01-20T16:07:11.026Z,8.40
2019-01-20T16:09:43.017Z,8.47
2019-01-20T16:12:16.800Z,8.62
2019-01-20T16:14:48.794Z,8.57
2019-01-20T16:17:20.708Z,8.75
2019-01-20T16:19:57.423Z,9.57
2019-01-20T16:22:29.528Z,9.33
2019-01-20T16:25:00.391Z,9.07
2019-01-20T16:27:32.378Z,8.33
2019-01-20T16:30:02.781Z,8.50
2019-01-20T16:32:35.038Z,8.60
2019-01-20T16:35:05.932Z,8.97
2019-01-20T16:37:37.682Z,9.23
2019-01-20T16:40:10.224Z,10.60
2019-01-20T16:42:41.059Z,9.33
2019-01-20T16:45:14.936Z,9.43
2019-01-20T16:47:47.683Z,10.03
2019-01-20T16:50:20.491Z,9.83
2019-01-20T16:52:54.719Z,10.13
2019-01-20T16:55:23.288Z,9.57
2019-01-20T16:57:54.166Z,10.30
2019-01-20T17:00:29.884Z,11.07
2019-01-20T17:03:01.354Z,11.00
2019-01-20T17:05:31.858Z,10.27
2019-01-20T17:08:05.488Z,11.65
2019-01-20T17:10:38.666Z,10.27
2019-01-20T17:13:10.459Z,10.23
2019-01-20T17:15:47.973Z,9.80
2019-01-20T17:18:19.437Z,9.38
2019-01-20T17:20:49.961Z,10.37
2019-01-20T17:23:23.171Z,9.90
2019-01-20T17:25:53.553Z,10.17
2019-01-20T17:28:26.387Z,9.93
2019-01-20T17:30:56.833Z,10.60
2019-01-20T17:33:27.886Z,10.88
2019-01-20T17:36:01.230Z,9.80
2019-01-20T17:38:33.789Z,9.35
2019-01-20T17:41:04.139Z,10.53
2019-01-20T17:43:36.986Z,10.48
2019-01-20T17:46:07.533Z,9.90
2019-01-20T17:48:42.857Z,10.03
2019-01-20T17:51:13.281Z,10.77
2019-01-20T17:53:45.859Z,9.70
2019-01-20T17:56:16.553Z,8.93
2019-01-20T17:58:47.219Z,9.93
2019-01-20T18:01:17.956Z,9.47
2019-01-20T18:03:48.925Z,9.50
2019-01-20T18:06:19.388Z,10.20
2019-01-20T18:08:50.839Z,9.83
2019-01-20T18:11:21.265Z,8.53
2019-01-20T18:13:51.551Z,9.07
2019-01-20T18:16:23.484Z,8.60
2019-01-20T18:18:54.182Z,8.27
2019-01-20T18:21:24.913Z,9.53
2019-01-20T18:24:06.595Z,9.90
2019-01-20T18:26:36.957Z,9.27
2019-01-20T18:29:08.374Z,9.43
2019-01-20T18:31:38.826Z,8.70
2019-01-20T18:34:09.266Z,8.10
2019-01-20T18:36:39.866Z,8.80
2019-01-20T18:39:10.462Z,9.27
2019-01-20T18:41:41.089Z,9.40
2019-01-20T18:44:11.567Z,9.10
2019-01-20T18:46:42.188Z,9.45
2019-01-20T18:49:12.671Z,9.60
2019-01-20T18:51:43.342Z,9.77
2019-01-20T18:54:13.809Z,9.53
2019-01-20T18:56:44.575Z,8.87
2019-01-20T18:59:15.053Z,9.57
2019-01-20T19:01:45.916Z,8.30
2019-01-20T19:04:16.327Z,9.33
2019-01-20T19:06:48.223Z,9.10
2019-01-20T19:09:19.573Z,10.53
2019-01-20T19:11:50.826Z,10.32
2019-01-20T19:14:21.225Z,10.60
2019-01-20T19:16:51.571Z,9.73
2019-01-20T19:19:22.257Z,8.00
2019-01-20T19:21:54.646Z,10.60
2019-01-20T19:24:25.120Z,8.73
2019-01-20T19:26:56.546Z,10.17
2019-01-20T19:29:27.157Z,11.15
2019-01-20T19:31:57.662Z,10.33
2019-01-20T19:34:29.004Z,10.20
2019-01-20T19:36:59.308Z,9.53
2019-01-20T19:39:29.715Z,9.77
2019-01-20T19:42:00.401Z,12.07
2019-01-20T19:44:31.321Z,13.56
2019-01-20T19:47:01.915Z,11.97
2019-01-20T19:49:33.006Z,12.30
2019-01-20T19:52:03.424Z,11.03
2019-01-20T19:54:35.473Z,12.25
2019-01-20T19:57:05.943Z,12.90
2019-01-20T19:59:36.993Z,12.50
2019-01-20T20:02:09.203Z,12.60
2019-01-20T20:04:41.983Z,10.98
2019-01-20T20:07:15.286Z,10.90
2019-01-20T20:09:48.463Z,13.03
2019-01-20T20:12:18.955Z,14.00
2019-01-20T20:14:50.539Z,12.80
2019-01-20T20:17:23.214Z,13.00
2019-01-20T20:19:54.724Z,12.68
2019-01-20T20:25:04.005Z,13.40
2019-01-20T20:27:34.518Z,11.90
2019-01-20T20:30:08.708Z,14.70
2019-01-20T20:32:39.141Z,13.17
2019-01-20T20:35:11.720Z,12.85
2019-01-20T20:37:42.589Z,14.63
2019-01-20T20:40:15.662Z,13.30
2019-01-20T20:42:46.019Z,13.13
2019-01-20T20:45:22.726Z,13.36
2019-01-20T20:47:53.363Z,12.73
2019-01-20T20:50:23.730Z,9.60
2019-01-20T20:52:54.446Z,9.27
2019-01-20T20:55:25.034Z,11.97
2019-01-20T20:57:57.663Z,10.50
2019-01-20T21:00:51.316Z,12.77
2019-01-20T21:03:27.765Z,15.10
2019-01-20T21:05:58.476Z,12.55
2019-01-20T21:08:30.042Z,11.33
2019-01-20T21:11:00.600Z,11.57
2019-01-20T21:13:31.015Z,11.27
2019-01-20T21:16:01.499Z,10.35
2019-01-20T21:18:32.256Z,11.70
2019-01-20T21:21:02.652Z,11.90
2019-01-20T21:23:33.227Z,12.67
2019-01-20T21:26:10.118Z,10.98
2019-01-20T21:28:40.506Z,11.57
2019-01-20T21:31:12.518Z,14.38
2019-01-20T21:33:43.003Z,13.77
2019-01-20T21:36:13.453Z,12.93
2019-01-20T21:38:44.331Z,13.07
2019-01-20T21:41:15.479Z,12.28
2019-01-20T21:43:46.300Z,13.03
2019-01-20T21:46:17.113Z,14.17
2019-01-20T21:48:47.535Z,13.80
2019-01-20T21:51:18.110Z,14.87
2019-01-20T21:53:48.528Z,16.33
2019-01-20T21:56:19.954Z,13.97
2019-01-20T21:58:50.676Z,12.55
2019-01-20T22:01:21.529Z,11.50
2019-01-20T22:03:52.117Z,13.87
2019-01-20T22:06:22.935Z,13.97
2019-01-20T22:08:53.560Z,13.17
2019-01-20T22:11:24.303Z,13.22
2019-01-20T22:13:55.003Z,11.28
2019-01-20T22:16:25.324Z,11.83
2019-01-20T22:18:58.031Z,11.40
2019-01-20T22:21:28.318Z,15.63
2019-01-20T22:24:00.344Z,15.40
2019-01-20T22:26:31.823Z,13.23
2019-01-20T22:29:02.402Z,14.80
2019-01-20T22:31:34.653Z,13.37
2019-01-20T22:34:07.019Z,13.47
2019-01-20T22:36:37.576Z,10.57
2019-01-20T22:39:09.698Z,10.93
2019-01-20T22:41:40.104Z,11.43
2019-01-20T22:44:13.304Z,11.35
2019-01-20T22:46:43.647Z,10.60
2019-01-20T22:49:16.696Z,11.28
2019-01-20T22:51:48.106Z,10.67
2019-01-20T22:54:20.592Z,10.83
2019-01-20T22:56:50.876Z,10.93
2019-01-20T22:59:23.282Z,10.86
2019-01-20T23:01:53.848Z,10.90
2019-01-20T23:04:25.462Z,11.80
2019-01-20T23:06:56.046Z,10.97
2019-01-20T23:09:26.618Z,10.03
2019-01-20T23:11:58.762Z,10.90
2019-01-20T23:14:29.219Z,10.83
2019-01-20T23:16:59.981Z,10.48
2019-01-20T23:19:34.391Z,12.83
2019-01-20T23:22:04.728Z,11.40
2019-01-20T23:24:35.042Z,13.00
2019-01-20T23:27:06.101Z,11.95
2019-01-20T23:29:36.758Z,11.73
2019-01-20T23:32:07.130Z,10.95
2019-01-20T23:34:37.691Z,12.13
2019-01-20T23:37:08.344Z,11.90
2019-01-20T23:39:38.685Z,11.37
2019-01-20T23:42:09.324Z,12.10
2019-01-20T23:44:40.063Z,11.23
2019-01-20T23:47:15.276Z,13.58
2019-01-20T23:49:46.223Z,15.57
2019-01-20T23:52:17.175Z,13.84
2019-01-20T23:54:47.465Z,13.07
2019-01-20T23:57:18.244Z,15.87
2019-01-20T23:59:48.635Z,14.40
